Time;durP1;ratioP1;P1;durP2;ratioP2;P2;SDS_P1;SDS_P2;PMS_P1;PMS_P2;Temp;Humidity;BMP_temperature;BMP_pressure;BME280_temperature;BME280_humidity;BME280_pressure;Samples;Min_cycle;Max_cycle;Signal;HPM_P1;HPM_P2
2020/12/10 00:00:28;;;;;;;24.25;17.10;;;;;;;6.47;80.78;99351.25;5319398;27;20060;-81
2020/12/10 00:02:55;;;;;;;23.42;17.58;;;;;;;6.35;82.03;99357.41;5319255;27;20049;-81
2020/12/10 00:05:22;;;;;;;22.48;16.25;;;;;;;6.32;82.54;99351.31;5319381;27;20122;-82
2020/12/10 00:07:48;;;;;;;18.77;15.80;;;;;;;6.11;82.61;99347.06;5319371;27;20080;-82
2020/12/10 00:10:15;;;;;;;22.65;15.45;;;;;;;6.25;82.65;99344.41;5299902;27;20069;-82
2020/12/10 00:12:44;;;;;;;20.05;14.32;;;;;;;6.24;82.89;99348.75;5299260;27;20060;-82
2020/12/10 00:15:12;;;;;;;17.00;13.27;;;;;;;6.77;80.85;99349.31;5300186;27;20441;-82
2020/12/10 00:17:39;;;;;;;17.27;13.13;;;;;;;7.15;79.05;99348.13;5300162;27;20073;-82
2020/12/10 00:20:10;;;;;;;16.37;12.02;;;;;;;6.59;80.65;99351.16;5300877;27;20068;-82
2020/12/10 00:22:38;;;;;;;15.57;11.00;;;;;;;6.81;79.78;99351.88;5320735;27;20131;-82
2020/12/10 00:25:06;;;;;;;16.42;11.05;;;;;;;6.85;78.66;99352.69;5300643;27;20216;-82
2020/12/10 00:27:35;;;;;;;18.70;12.25;;;;;;;6.97;78.65;99339.56;5300819;27;20611;-82
2020/12/10 00:30:07;;;;;;;15.43;11.60;;;;;;;7.11;77.98;99338.56;5300423;27;20089;-82
2020/12/10 00:32:34;;;;;;;14.43;10.93;;;;;;;6.29;80.66;99341.75;5300294;27;20057;-82
2020/12/10 00:35:01;;;;;;;14.95;11.35;;;;;;;6.46;80.37;99339.06;5300474;27;20505;-82
2020/12/10 00:37:28;;;;;;;13.30;9.90;;;;;;;6.07;82.43;99345.34;5300281;27;20617;-82
2020/12/10 00:39:55;;;;;;;12.75;9.63;;;;;;;6.26;80.83;99341.75;5300453;27;20508;-82
2020/12/10 00:42:22;;;;;;;11.75;8.77;;;;;;;6.67;79.83;99343.25;5300117;27;20057;-82
2020/12/10 00:44:51;;;;;;;;;;;;;;;6.96;77.92;99345.66;5300979;27;20060;-81
2020/12/10 00:47:19;;;;;;;11.77;8.73;;;;;;;7.30;76.95;99340.16;5300493;27;19964;-82
2020/12/10 00:49:47;;;;;;;11.88;9.43;;;;;;;7.62;75.83;99341.59;5300228;27;20069;-82
2020/12/10 00:52:14;;;;;;;13.05;9.23;;;;;;;7.20;77.13;99338.50;5300627;27;20091;-82
2020/12/10 00:54:42;;;;;;;13.95;9.57;;;;;;;6.93;78.77;99348.28;5300488;27;20053;-82
2020/12/10 00:57:11;;;;;;;13.25;9.02;;;;;;;7.34;77.31;99336.63;5300183;27;20068;-82
2020/12/10 00:59:40;;;;;;;12.75;9.75;;;;;;;7.21;77.86;99340.25;5300831;27;20520;-81
2020/12/10 01:02:08;;;;;;;15.18;10.27;;;;;;;7.60;76.14;99341.59;5300238;27;20210;-82
2020/12/10 01:04:37;;;;;;;14.25;10.63;;;;;;;7.89;74.83;99336.03;5319888;27;20071;-82
2020/12/10 01:07:05;;;;;;;9.70;6.53;;;;;;;7.62;75.58;99345.06;5300731;27;20061;-82
2020/12/10 01:09:33;;;;;;;7.55;4.72;;;;;;;6.17;78.03;99341.81;5282105;27;20084;-82
2020/12/10 01:12:05;;;;;;;8.05;5.80;;;;;;;6.69;75.57;99345.87;5320455;27;20049;-82
2020/12/10 01:14:33;;;;;;;7.32;4.50;;;;;;;6.23;77.82;99346.13;5320517;27;20045;-82
2020/12/10 01:17:01;;;;;;;8.43;5.62;;;;;;;6.47;75.33;99346.03;5300320;27;20126;-82
2020/12/10 01:19:28;;;;;;;8.18;5.90;;;;;;;6.57;75.96;99339.84;5300266;27;20068;-83
2020/12/10 01:21:55;;;;;;;6.97;5.22;;;;;;;6.64;76.29;99334.59;5300428;27;20449;-82
2020/12/10 01:24:22;;;;;;;6.60;4.15;;;;;;;6.44;75.48;99339.94;5300016;27;20057;-82
2020/12/10 01:26:48;;;;;;;6.62;4.47;;;;;;;6.35;76.18;99333.03;5299668;27;20096;-82
2020/12/10 01:29:15;;;;;;;4.62;3.28;;;;;;;5.95;77.45;99335.84;5300301;27;20095;-82
2020/12/10 01:31:42;;;;;;;7.07;3.70;;;;;;;6.10;77.45;99335.78;5299884;27;20434;-82
2020/12/10 01:34:08;;;;;;;5.60;3.92;;;;;;;6.25;77.33;99326.12;5299950;27;20441;-82
2020/12/10 01:36:35;;;;;;;5.55;3.80;;;;;;;6.21;77.28;99335.72;5299844;27;20508;-82
2020/12/10 01:39:02;;;;;;;4.07;2.90;;;;;;;6.09;77.14;99330.56;5300155;27;20060;-82
2020/12/10 01:41:31;;;;;;;3.00;1.87;;;;;;;5.52;77.83;99332.47;5282259;27;20057;-81
2020/12/10 01:44:03;;;;;;;3.55;2.10;;;;;;;5.76;75.36;99327.19;5299961;27;20121;-81
2020/12/10 01:46:30;;;;;;;3.58;1.65;;;;;;;5.72;75.69;99317.66;5300090;27;20148;-82
2020/12/10 01:48:56;;;;;;;1.92;1.25;;;;;;;5.68;75.32;99323.75;5300107;27;20128;-82
2020/12/10 01:51:23;;;;;;;2.65;1.37;;;;;;;6.03;74.26;99320.16;5299921;27;20151;-81
2020/12/10 01:53:50;;;;;;;2.20;1.37;;;;;;;5.81;75.20;99316.75;5300335;27;20076;-82
2020/12/10 01:56:17;;;;;;;2.12;1.33;;;;;;;5.82;75.38;99311.50;5299571;27;20379;-82
2020/12/10 01:58:44;;;;;;;1.90;1.40;;;;;;;5.55;76.27;99320.28;5300688;27;20147;-82
2020/12/10 02:01:12;;;;;;;3.42;1.87;;;;;;;5.41;76.64;99320.34;5299904;27;20071;-82
2020/12/10 02:03:39;;;;;;;2.12;1.52;;;;;;;5.98;74.96;99314.97;5319918;27;20099;-82
2020/12/10 02:06:06;;;;;;;2.05;1.55;;;;;;;6.25;74.34;99311.34;5319903;27;20080;-82
2020/12/10 02:08:32;;;;;;;2.00;1.25;;;;;;;6.46;73.58;99314.69;5299963;27;20082;-82
2020/12/10 02:10:59;;;;;;;2.08;1.50;;;;;;;6.72;73.19;99314.53;5299927;27;20083;-82
2020/12/10 02:13:25;;;;;;;4.20;2.20;;;;;;;7.05;72.29;99314.22;5300501;27;20061;-82
2020/12/10 02:15:52;;;;;;;2.55;1.87;;;;;;;7.19;71.89;99311.50;5299829;27;20129;-82
2020/12/10 02:18:18;;;;;;;3.53;2.10;;;;;;;7.19;71.91;99305.41;5300011;27;20067;-82
2020/12/10 02:20:45;;;;;;;3.17;2.00;;;;;;;7.32;71.34;99311.38;5300130;27;20067;-82
2020/12/10 02:23:11;;;;;;;2.53;1.73;;;;;;;7.45;70.77;99308.63;5299987;27;20056;-82
2020/12/10 02:25:39;;;;;;;3.60;1.67;;;;;;;7.54;70.11;99309.44;5299960;27;20068;-82
2020/12/10 02:28:14;;;;;;;1.75;1.00;;;;;;;7.23;70.63;99309.72;5299965;27;20068;-82
2020/12/10 02:30:44;;;;;;;1.58;1.10;;;;;;;7.53;68.70;99310.28;5300057;27;20061;-82
2020/12/10 02:33:11;;;;;;;;;;;;;;;7.64;68.30;99311.03;5300524;27;20883;-82
2020/12/10 02:35:39;;;;;;;1.60;1.15;;;;;;;7.41;66.73;99309.56;5300121;27;19992;-82
2020/12/10 02:38:08;;;;;;;1.80;1.08;;;;;;;7.47;67.30;99303.38;5299211;27;20071;-82
2020/12/10 02:40:42;;;;;;;1.95;1.23;;;;;;;7.57;67.39;99306.78;5300058;27;20071;-82
2020/12/10 02:43:10;;;;;;;1.77;0.90;;;;;;;7.58;67.61;99304.12;5299853;27;20068;-82
2020/12/10 02:45:38;;;;;;;2.28;1.10;;;;;;;7.74;66.97;99292.63;5300427;27;20065;-82
2020/12/10 02:48:06;;;;;;;2.37;1.23;;;;;;;7.73;67.27;99292.63;5299790;27;20072;-82
2020/12/10 02:50:32;;;;;;;1.70;1.00;;;;;;;7.82;67.00;99297.75;5299884;27;20450;-82
2020/12/10 02:52:59;;;;;;;1.92;1.10;;;;;;;7.93;66.61;99290.63;5319668;27;20067;-82
2020/12/10 02:55:25;;;;;;;1.60;1.20;;;;;;;7.97;66.31;99289.72;5299701;27;20106;-83
2020/12/10 02:57:52;;;;;;;1.45;1.08;;;;;;;8.09;65.72;99282.56;5299610;27;20322;-82
2020/12/10 03:00:19;;;;;;;1.52;0.90;;;;;;;8.04;65.71;99287.88;5299809;27;20056;-82
2020/12/10 03:02:46;;;;;;;1.70;1.08;;;;;;;8.14;65.32;99288.62;5299815;27;20077;-82
2020/12/10 03:05:12;;;;;;;2.17;1.10;;;;;;;8.14;64.61;99286.88;5299820;27;20127;-82
2020/12/10 03:07:39;;;;;;;1.55;1.08;;;;;;;7.58;65.30;99279.75;5299626;27;20462;-83
2020/12/10 03:10:05;;;;;;;1.65;1.12;;;;;;;7.82;65.03;99282.06;5299843;27;20129;-82
2020/12/10 03:12:32;;;;;;;1.80;1.40;;;;;;;8.08;64.62;99279.09;5299791;27;20132;-82
2020/12/10 03:14:59;;;;;;;1.83;1.10;;;;;;;8.16;64.55;99277.25;5299720;27;20129;-82
2020/12/10 03:17:26;;;;;;;1.62;1.10;;;;;;;8.26;64.40;99272.75;5281935;27;20386;-82
2020/12/10 03:19:56;;;;;;;2.67;1.45;;;;;;;8.22;64.21;99275.44;5319461;27;20071;-82
2020/12/10 03:22:22;;;;;;;2.22;1.23;;;;;;;8.12;64.62;99275.56;5299302;27;20110;-82
2020/12/10 03:24:49;;;;;;;1.58;1.02;;;;;;;8.14;64.62;99272.94;5319487;27;20119;-82
2020/12/10 03:27:16;;;;;;;2.40;1.15;;;;;;;7.96;65.19;99264.44;5278067;27;20443;-81
2020/12/10 03:29:42;;;;;;;2.45;1.33;;;;;;;7.94;65.63;99260.09;5297462;27;20061;-82
2020/12/10 03:32:09;;;;;;;1.15;0.90;;;;;;;8.06;65.49;99259.06;5295863;27;20061;-82
2020/12/10 03:34:35;;;;;;;3.17;1.33;;;;;;;8.12;65.46;99256.41;5295618;27;20087;-83
2020/12/10 03:37:02;;;;;;;1.87;1.23;;;;;;;8.11;65.61;99254.66;5295869;27;20119;-83
2020/12/10 03:39:30;;;;;;;3.95;1.33;;;;;;;7.96;65.69;99253.97;5295885;27;20509;-82
2020/12/10 03:41:58;;;;;;;3.40;1.92;;;;;;;8.00;65.67;99257.44;5296141;27;20572;-82
2020/12/10 03:44:26;;;;;;;2.08;1.27;;;;;;;8.23;64.96;99258.84;5295912;27;20093;-82
2020/12/10 03:46:53;;;;;;;1.52;1.17;;;;;;;8.25;64.94;99254.47;5295743;27;20061;-82
2020/12/10 03:49:20;;;;;;;2.70;1.85;;;;;;;8.17;65.02;99259.81;5296097;27;20075;-82
2020/12/10 03:51:47;;;;;;;3.28;1.37;;;;;;;8.23;64.98;99266.69;5298595;27;20053;-82
2020/12/10 03:54:14;;;;;;;2.85;1.73;;;;;;;8.34;64.85;99256.94;5278922;27;20508;-82
2020/12/10 03:56:40;;;;;;;3.35;2.00;;;;;;;8.20;65.33;99258.00;5296669;27;20069;-82
2020/12/10 03:59:07;;;;;;;4.90;2.50;;;;;;;8.13;65.67;99255.50;5296465;27;20441;-82
2020/12/10 04:01:34;;;;;;;4.97;1.70;;;;;;;8.23;65.43;99251.00;5296627;27;20461;-82
2020/12/10 04:04:03;;;;;;;3.12;1.80;;;;;;;8.11;65.66;99254.66;5296709;27;20126;-82
2020/12/10 04:06:30;;;;;;;3.50;2.00;;;;;;;8.19;65.18;99251.03;5296673;27;20115;-82
2020/12/10 04:08:58;;;;;;;3.90;1.90;;;;;;;8.10;65.28;99252.94;5297073;27;20061;-82
2020/12/10 04:11:24;;;;;;;2.95;2.28;;;;;;;8.03;65.31;99249.56;5296869;27;20537;-82
2020/12/10 04:13:53;;;;;;;2.97;1.90;;;;;;;8.06;65.18;99248.63;5296388;27;20467;-82
2020/12/10 04:16:19;;;;;;;3.55;1.90;;;;;;;8.07;65.17;99251.22;5296784;27;20085;-82
2020/12/10 04:18:46;;;;;;;3.67;2.55;;;;;;;8.09;65.31;99245.94;5296470;27;20136;-82
2020/12/10 04:21:13;;;;;;;3.08;1.83;;;;;;;8.13;65.24;99250.28;5296626;27;20056;-82
2020/12/10 04:23:40;;;;;;;3.15;1.60;;;;;;;8.10;65.33;99250.31;5296986;27;20100;-82
2020/12/10 04:26:07;;;;;;;2.92;1.80;;;;;;;8.05;65.67;99242.53;5296625;27;20099;-82
2020/12/10 04:28:33;;;;;;;2.40;1.60;;;;;;;8.14;65.52;99245.00;5296150;27;20113;-82
2020/12/10 04:31:00;;;;;;;2.40;1.35;;;;;;;8.17;65.46;99236.25;5296547;27;20395;-82
2020/12/10 04:33:27;;;;;;;2.10;1.60;;;;;;;8.02;65.60;99236.47;5298050;27;20081;-82
2020/12/10 04:35:54;;;;;;;1.90;1.30;;;;;;;7.99;65.62;99237.38;5296747;27;20127;-82
2020/12/10 04:38:21;;;;;;;1.87;1.50;;;;;;;7.99;65.40;99239.13;5278424;27;20077;-82
2020/12/10 04:40:47;;;;;;;2.10;1.55;;;;;;;8.16;64.87;99239.75;5296678;27;20049;-82
2020/12/10 04:43:15;;;;;;;3.80;1.83;;;;;;;8.12;64.92;99238.09;5296546;27;20122;-82
2020/12/10 04:45:42;;;;;;;2.97;1.58;;;;;;;8.13;64.98;99242.44;5296604;27;20065;-82
2020/12/10 04:48:09;;;;;;;2.05;1.17;;;;;;;8.08;65.12;99239.00;5296343;27;20437;-82
2020/12/10 04:50:37;;;;;;;2.03;1.50;;;;;;;8.03;65.27;99240.81;5296492;27;20049;-82
2020/12/10 04:53:04;;;;;;;2.62;1.75;;;;;;;8.13;65.03;99239.81;5296321;27;20493;-82
2020/12/10 04:55:31;;;;;;;3.00;1.70;;;;;;;8.22;64.87;99244.03;5298110;27;20120;-82
2020/12/10 04:57:59;;;;;;;3.62;1.87;;;;;;;8.04;65.40;99235.56;5298153;27;20061;-82
2020/12/10 05:00:29;;;;;;;3.00;1.75;;;;;;;8.05;65.54;99245.13;5296390;27;20396;-83
2020/12/10 05:02:58;;;;;;;3.17;1.75;;;;;;;8.06;65.54;99249.50;5298206;27;20148;-82
2020/12/10 05:05:29;;;;;;;2.78;2.00;;;;;;;8.00;65.62;99249.59;5298207;27;20103;-82
2020/12/10 05:08:02;;;;;;;3.65;2.33;;;;;;;8.00;65.53;99246.09;5298172;27;20057;-82
2020/12/10 05:10:32;;;;;;;4.97;3.10;;;;;;;8.02;65.29;99253.03;5298150;27;20057;-82
2020/12/10 05:13:10;;;;;;;4.82;3.45;;;;;;;7.98;65.26;99248.75;5298059;27;20091;-82
2020/12/10 05:15:37;;;;;;;6.10;4.03;;;;;;;8.19;64.40;99244.94;5298066;27;20082;-82
2020/12/10 05:18:04;;;;;;;5.18;3.95;;;;;;;8.14;64.28;99247.63;5298013;27;20793;-82
2020/12/10 05:20:50;;;;;;;6.28;4.53;;;;;;;8.10;64.35;99250.31;5298102;27;20849;-82
2020/12/10 05:23:39;;;;;;;6.07;4.70;;;;;;;8.07;64.74;99260.81;5296548;27;20095;-82
2020/12/10 05:26:08;;;;;;;5.57;4.25;;;;;;;7.97;65.23;99253.13;5298095;27;20061;-82
2020/12/10 05:28:48;;;;;;;5.07;3.45;;;;;;;7.89;65.60;99259.31;5317386;27;20049;-82
2020/12/10 05:31:18;;;;;;;6.93;3.87;;;;;;;7.90;65.55;99250.59;5320293;27;20108;-82
2020/12/10 05:34:02;;;;;;;5.53;3.53;;;;;;;7.71;65.57;99252.59;5319867;27;20399;-82
2020/12/10 05:36:31;;;;;;;5.57;2.87;;;;;;;7.82;65.58;99250.66;5320444;27;20084;-82
2020/12/10 05:39:03;;;;;;;3.75;3.25;;;;;;;7.73;65.99;99251.69;5319991;27;20093;-82
2020/12/10 05:41:32;;;;;;;4.03;2.30;;;;;;;7.76;66.16;99261.22;5320028;27;20049;-81
2020/12/10 05:44:23;;;;;;;5.97;2.22;;;;;;;7.76;66.35;99257.75;5300303;27;20069;-82
2020/12/10 05:47:03;;;;;;;3.15;1.80;;;;;;;7.74;66.20;99252.53;5300207;27;20065;-82
2020/12/10 05:49:30;;;;;;;3.22;2.05;;;;;;;7.83;66.11;99256.78;5300269;27;20426;-82
2020/12/10 05:52:03;;;;;;;3.62;2.58;;;;;;;7.79;66.32;99258.56;5300117;27;20529;-82
2020/12/10 05:54:35;;;;;;;5.12;2.92;;;;;;;7.81;66.43;99258.56;5300010;27;20060;-82
2020/12/10 05:57:06;;;;;;;4.93;3.10;;;;;;;7.74;66.60;99263.88;5299869;27;20068;-82
2020/12/10 05:59:33;;;;;;;4.45;2.50;;;;;;;7.67;66.77;99267.41;5300197;27;20061;-81
2020/12/10 06:02:04;;;;;;;3.22;2.60;;;;;;;7.74;66.24;99263.00;5282026;27;20067;-82
2020/12/10 06:04:32;;;;;;;4.20;2.85;;;;;;;7.73;66.21;99253.41;5299944;27;20077;-82
2020/12/10 06:07:01;;;;;;;4.55;2.92;;;;;;;7.76;66.29;99250.75;5300115;27;20087;-81
2020/12/10 06:09:31;;;;;;;3.83;2.65;;;;;;;7.76;66.21;99250.75;5300523;27;20103;-82
2020/12/10 06:12:02;;;;;;;4.03;2.92;;;;;;;7.75;66.36;99246.41;5300275;27;20049;-82
2020/12/10 06:14:28;;;;;;;2.80;1.92;;;;;;;7.74;66.33;99252.53;5300053;27;20076;-82
2020/12/10 06:17:10;;;;;;;4.50;2.47;;;;;;;7.59;66.69;99242.25;5300084;27;20103;-82
2020/12/10 06:19:38;;;;;;;3.78;2.40;;;;;;;7.91;65.40;99245.34;5319561;27;20053;-82
2020/12/10 06:22:22;;;;;;;4.55;2.25;;;;;;;7.88;65.43;99247.13;5300152;27;20060;-82
2020/12/10 06:24:49;;;;;;;3.80;2.28;;;;;;;7.72;65.81;99249.94;5300323;27;20068;-82
2020/12/10 06:30:19;;;;;;;6.40;2.60;;;;;;;7.87;65.16;99245.41;5317521;27;20063;-81
2020/12/10 06:33:03;;;;;;;6.50;2.17;;;;;;;7.84;65.36;99243.69;5317393;27;20335;-81
2020/12/10 06:35:35;;;;;;;6.62;3.20;;;;;;;7.53;66.41;99248.44;5281498;27;20076;-81
2020/12/10 06:38:04;;;;;;;4.62;2.78;;;;;;;7.43;66.89;99259.88;5299319;27;20470;-81
2020/12/10 06:40:59;;;;;;;4.28;3.75;;;;;;;7.31;66.95;99260.88;5299261;27;20747;-81
2020/12/10 06:43:44;;;;;;;5.93;3.37;;;;;;;6.99;68.33;99263.81;5299739;27;20068;-82
2020/12/10 06:46:11;;;;;;;9.68;3.58;;;;;;;7.18;67.83;99268.00;5299180;27;20069;-81
2020/12/10 06:48:45;;;;;;;5.53;3.17;;;;;;;7.12;68.35;99260.22;5299564;27;20086;-81
2020/12/10 06:54:24;;;;;;;7.37;4.00;;;;;;;7.38;67.96;99267.78;5229183;27;20061;-82
2020/12/10 06:57:01;;;;;;;7.28;4.35;;;;;;;7.27;68.30;99267.88;5301348;27;448826;-80
2020/12/10 06:59:41;;;;;;;6.07;4.22;;;;;;;7.17;69.13;99265.38;5298646;27;20092;-81
2020/12/10 07:02:19;;;;;;;8.68;5.65;;;;;;;7.24;69.00;99277.50;5299519;27;20498;-80
2020/12/10 07:05:14;;;;;;;7.95;4.45;;;;;;;7.55;68.43;99277.16;5297935;27;20151;-81
2020/12/10 07:08:07;;;;;;;5.90;3.50;;;;;;;7.27;68.65;99288.78;5298913;27;20073;-81
2020/12/10 07:10:38;;;;;;;5.35;3.35;;;;;;;7.61;66.71;99277.94;5299267;27;20074;-80
2020/12/10 07:13:13;;;;;;;3.58;2.33;;;;;;;7.24;67.54;99274.91;5281056;27;20056;-80
2020/12/10 07:15:50;;;;;;;4.70;3.03;;;;;;;7.10;67.77;99282.88;5297585;27;20064;-80
2020/12/10 07:18:17;;;;;;;9.48;8.57;;;;;;;6.38;70.54;99286.03;5299044;27;20106;-80
2020/12/10 07:21:11;;;;;;;8.23;6.20;;;;;;;6.45;70.49;99284.28;5297711;27;20067;-79
2020/12/10 07:23:41;;;;;;;6.85;6.15;;;;;;;7.02;69.43;99271.63;5298149;27;20866;-80
2020/12/10 07:26:07;;;;;;;7.35;5.93;;;;;;;6.79;70.28;99282.25;5279942;27;20478;-81
2020/12/10 07:28:42;;;;;;;5.47;3.80;;;;;;;7.20;69.03;99274.03;5297757;27;20065;-80
2020/12/10 07:31:26;;;;;;;6.22;4.37;;;;;;;7.14;69.30;99265.41;5317950;27;20061;-80
2020/12/10 07:33:56;;;;;;;5.68;4.28;;;;;;;7.16;69.56;99269.75;5299320;27;20065;-80
2020/12/10 07:36:48;;;;;;;5.93;4.72;;;;;;;7.24;69.48;99269.66;5298213;27;20061;-79
2020/12/10 07:39:35;;;;;;;5.35;4.37;;;;;;;7.58;68.36;99264.06;5299114;27;20406;-80
2020/12/10 07:42:02;;;;;;;11.98;9.02;;;;;;;7.51;68.69;99265.88;5298664;27;20203;-80
2020/12/10 07:44:36;;;;;;;19.45;14.63;;;;;;;7.23;69.40;99275.75;5280376;27;20061;-80
2020/12/10 07:47:18;;;;;;;20.37;14.75;;;;;;;7.21;69.81;99277.53;5298738;27;20061;-80
2020/12/10 07:49:45;;;;;;;16.65;11.57;;;;;;;6.80;71.82;99282.25;5318135;27;20125;-80
2020/12/10 07:52:16;;;;;;;9.80;6.47;;;;;;;6.50;73.48;99280.75;5279566;27;20117;-80
2020/12/10 07:55:44;;;;;;;8.98;7.07;;;;;;;6.80;72.43;99276.19;5318078;27;20105;-80
2020/12/10 07:58:11;;;;;;;9.90;6.20;;;;;;;6.88;72.60;99278.69;5317938;27;20136;-80
2020/12/10 08:00:44;;;;;;;11.00;7.65;;;;;;;6.75;73.32;99280.56;5298268;27;20081;-80
2020/12/10 08:03:51;;;;;;;11.77;7.85;;;;;;;6.45;74.12;99290.34;5298524;27;20068;-80
2020/12/10 08:06:18;;;;;;;9.75;8.18;;;;;;;6.52;73.19;99296.41;5297894;27;20069;-81
2020/12/10 08:08:49;;;;;;;8.30;6.87;;;;;;;6.93;72.43;99287.38;5298605;27;20056;-80
2020/12/10 08:11:19;;;;;;;10.82;9.52;;;;;;;7.00;71.55;99294.25;5318643;27;20075;-80
2020/12/10 08:14:09;;;;;;;9.25;8.18;;;;;;;7.09;71.22;99293.31;5298631;27;20087;-81
2020/12/10 08:16:40;;;;;;;8.10;6.72;;;;;;;6.59;73.17;99304.19;5298735;27;20410;-80
2020/12/10 08:19:30;;;;;;;10.38;7.97;;;;;;;6.84;72.16;99303.97;5298412;27;20063;-80
2020/12/10 08:21:58;;;;;;;8.45;6.78;;;;;;;7.12;71.45;99308.94;5298566;27;20073;-80
2020/12/10 08:24:46;;;;;;;10.50;7.53;;;;;;;7.01;71.28;99309.94;5280717;27;20061;-80
2020/12/10 08:27:16;;;;;;;9.93;6.72;;;;;;;7.44;69.91;99303.41;5298957;27;20128;-81
2020/12/10 08:30:11;;;;;;;10.68;7.60;;;;;;;6.94;71.77;99312.59;5317754;27;20056;-80
2020/12/10 08:32:52;;;;;;;9.15;7.05;;;;;;;7.11;70.80;99304.62;5297816;27;20076;-79
2020/12/10 08:35:19;;;;;;;8.98;6.35;;;;;;;6.60;72.34;99315.47;5318686;27;20359;-78
2020/12/10 08:37:46;;;;;;;8.27;6.35;;;;;;;6.54;72.20;99319.00;5299209;27;20064;-79
2020/12/10 08:40:23;;;;;;;6.15;5.05;;;;;;;6.52;72.41;99328.56;5319803;27;20057;-80
2020/12/10 08:42:50;;;;;;;6.93;5.82;;;;;;;7.05;70.34;99335.12;5319450;27;20053;-80
2020/12/10 08:45:43;;;;;;;9.75;7.60;;;;;;;6.34;72.53;99334.78;5281800;27;20132;-80
2020/12/10 08:48:28;;;;;;;9.85;7.20;;;;;;;6.68;71.81;99337.19;5317968;27;20148;-80
2020/12/10 08:51:20;;;;;;;9.98;7.10;;;;;;;6.48;72.33;99339.06;5319883;27;20055;-81
2020/12/10 08:53:52;;;;;;;9.45;6.75;;;;;;;6.17;74.22;99346.16;5319012;27;20118;-81
2020/12/10 08:56:24;;;;;;;7.53;6.00;;;;;;;6.52;73.91;99344.22;5298962;27;20394;-79
2020/12/10 08:58:52;;;;;;;7.80;5.75;;;;;;;6.48;72.91;99350.34;5299908;27;20357;-79
2020/12/10 09:01:18;;;;;;;11.32;8.65;;;;;;;6.82;71.15;99352.72;5298860;27;20730;-80
2020/12/10 09:04:26;;;;;;;8.13;5.90;;;;;;;6.86;70.94;99351.84;5299547;27;20347;-80
2020/12/10 09:06:52;;;;;;;8.18;5.80;;;;;;;6.94;70.97;99363.09;5297934;27;20084;-80
2020/12/10 09:09:20;;;;;;;9.90;7.20;;;;;;;7.08;70.22;99357.75;5298378;27;20060;-79
2020/12/10 09:12:06;;;;;;;9.55;6.87;;;;;;;7.00;70.74;99357.84;5318936;27;20101;-80
2020/12/10 09:14:34;;;;;;;7.87;6.43;;;;;;;7.23;69.38;99351.53;5299504;27;20122;-80
2020/12/10 09:17:03;;;;;;;8.40;6.47;;;;;;;6.97;70.34;99355.25;5299187;27;20427;-80
2020/12/10 09:19:30;;;;;;;9.15;7.30;;;;;;;7.13;70.51;99344.66;5299416;27;20620;-81
2020/12/10 09:21:57;;;;;;;8.85;6.57;;;;;;;6.95;70.81;99351.78;5299627;27;20065;-80
2020/12/10 09:24:23;;;;;;;8.15;7.22;;;;;;;7.20;69.89;99343.72;5299278;27;20110;-80
2020/12/10 09:26:50;;;;;;;9.93;6.78;;;;;;;7.02;70.31;99344.75;5299197;27;20607;-81
2020/12/10 09:29:16;;;;;;;8.20;5.90;;;;;;;6.94;70.63;99344.81;5299349;27;20071;-80
2020/12/10 09:31:43;;;;;;;8.07;5.93;;;;;;;7.35;69.45;99338.34;5299187;27;20065;-80
2020/12/10 09:34:10;;;;;;;7.70;6.10;;;;;;;6.96;70.83;99350.03;5299372;27;20118;-80
2020/12/10 09:37:08;;;;;;;6.22;4.97;;;;;;;7.15;70.25;99348.13;5280237;27;20122;-79
2020/12/10 09:39:47;;;;;;;7.95;5.95;;;;;;;7.07;70.29;99349.94;5299472;27;20053;-80
2020/12/10 09:42:18;;;;;;;7.50;5.50;;;;;;;7.17;69.97;99356.81;5313951;26;20316;-79
2020/12/10 09:44:46;;;;;;;7.90;5.47;;;;;;;7.03;70.43;99352.59;5300101;27;20069;-80
2020/12/10 09:47:13;;;;;;;10.50;8.20;;;;;;;7.26;69.31;99351.50;5299445;27;20065;-79
2020/12/10 09:50:44;;;;;;;10.82;7.70;;;;;;;7.07;70.26;99350.81;5319349;27;20048;-80
2020/12/10 09:53:15;;;;;;;7.43;5.57;;;;;;;6.56;72.20;99356.41;5317814;27;20335;-80
2020/12/10 09:59:16;;;;;;;6.82;5.15;;;;;;;6.81;71.37;99362.31;5319098;27;20312;-80
2020/12/10 10:01:46;;;;;;;5.87;4.25;;;;;;;7.11;70.75;99357.72;5319157;27;20069;-79
2020/12/10 10:04:13;;;;;;;5.22;3.62;;;;;;;6.89;70.72;99357.03;5318909;27;20098;-80
2020/12/10 10:06:42;;;;;;;5.40;3.95;;;;;;;7.25;70.42;99352.38;5319293;27;20057;-80
2020/12/10 10:09:11;;;;;;;6.82;5.68;;;;;;;7.37;70.34;99352.28;5319486;27;20089;-80
2020/12/10 10:11:56;;;;;;;6.57;5.22;;;;;;;7.47;69.68;99351.31;5299576;27;20057;-80
2020/12/10 10:14:22;;;;;;;7.65;5.78;;;;;;;7.47;69.79;99348.69;5298346;27;20072;-80
2020/12/10 10:16:49;;;;;;;5.37;4.75;;;;;;;7.34;69.76;99360.13;5318875;27;20064;-82
2020/12/10 10:19:19;;;;;;;7.35;4.62;;;;;;;7.54;69.65;99348.62;5318680;27;20119;-80
2020/12/10 10:21:47;;;;;;;5.35;3.97;;;;;;;7.63;69.65;99353.75;5299546;27;20061;-80
2020/12/10 10:24:24;;;;;;;5.65;3.95;;;;;;;7.82;69.15;99346.56;5319058;27;20073;-82
2020/12/10 10:27:10;;;;;;;5.05;3.65;;;;;;;7.95;68.66;99350.78;5318821;27;20076;-80
2020/12/10 10:29:38;;;;;;;5.45;3.70;;;;;;;7.95;67.73;99356.03;5295236;27;20083;-81
2020/12/10 10:32:07;;;;;;;5.62;3.90;;;;;;;7.70;68.77;99351.03;5319263;27;20069;-79
2020/12/10 10:34:38;;;;;;;4.32;2.92;;;;;;;7.54;69.22;99356.47;5299381;27;20068;-80
2020/12/10 10:37:04;;;;;;;5.25;3.45;;;;;;;7.68;69.19;99357.22;5280363;27;20121;-82
2020/12/10 10:39:31;;;;;;;7.55;5.07;;;;;;;7.49;69.40;99352.16;5319114;27;20146;-80
2020/12/10 10:41:57;;;;;;;4.87;3.45;;;;;;;7.76;68.89;99354.50;5318621;27;20076;-82
2020/12/10 10:44:24;;;;;;;7.35;4.87;;;;;;;7.61;68.84;99358.13;5299668;27;20067;-82
2020/12/10 10:47:31;;;;;;;7.32;4.97;;;;;;;7.72;69.45;99351.91;5299060;27;20095;-80
2020/12/10 10:50:17;;;;;;;9.35;6.57;;;;;;;8.00;69.07;99343.75;5298533;27;20077;-81
2020/12/10 10:52:45;;;;;;;8.50;5.18;;;;;;;8.23;68.50;99342.59;5316970;27;20528;-81
2020/12/10 10:55:15;;;;;;;7.53;4.78;;;;;;;8.24;68.18;99342.59;5318994;27;20081;-81
2020/12/10 10:57:42;;;;;;;5.78;3.78;;;;;;;8.24;68.16;99339.97;5299278;27;20075;-81
2020/12/10 11:00:37;;;;;;;8.98;7.07;;;;;;;8.22;68.03;99339.09;5318206;27;20119;-80
2020/12/10 11:03:03;;;;;;;6.57;5.93;;;;;;;8.08;68.24;99336.66;5298809;27;20060;-81
2020/12/10 11:05:30;;;;;;;5.93;5.07;;;;;;;8.22;68.02;99331.25;5299627;27;20539;-81
2020/12/10 11:07:59;;;;;;;6.68;5.20;;;;;;;8.19;68.34;99332.16;5298545;27;20076;-80
2020/12/10 11:10:34;;;;;;;5.70;3.37;;;;;;;8.39;67.72;99338.94;5281865;27;20727;-81
2020/12/10 11:13:02;;;;;;;3.90;3.05;;;;;;;8.40;67.56;99327.56;5299375;27;20053;-80
2020/12/10 11:15:29;;;;;;;4.10;2.67;;;;;;;8.27;67.57;99341.69;5298826;27;20065;-80
2020/12/10 11:17:56;;;;;;;4.15;2.92;;;;;;;8.27;67.64;99341.69;5299593;27;20068;-81
2020/12/10 11:20:42;;;;;;;3.08;2.53;;;;;;;8.27;67.56;99333.81;5299400;27;20080;-80
2020/12/10 11:23:09;;;;;;;5.20;3.00;;;;;;;8.26;67.41;99330.31;5298653;27;20082;-80
2020/12/10 11:25:40;;;;;;;3.50;2.55;;;;;;;8.07;68.25;99331.47;5299920;27;20049;-79
2020/12/10 11:28:38;;;;;;;3.97;3.15;;;;;;;7.88;68.66;99338.66;5319086;27;20081;-80
2020/12/10 11:31:17;;;;;;;4.30;3.22;;;;;;;7.76;69.02;99339.66;5280956;27;20079;-80
2020/12/10 11:33:44;;;;;;;2.60;2.30;;;;;;;7.65;68.86;99342.41;5296674;27;20088;-79
2020/12/10 11:36:10;;;;;;;3.75;2.70;;;;;;;7.62;69.39;99341.59;5277160;27;20044;-79
2020/12/10 11:38:41;;;;;;;5.05;3.58;;;;;;;7.33;70.08;99340.13;5276790;27;20065;-82
2020/12/10 11:41:22;;;;;;;6.60;4.87;;;;;;;7.27;70.06;99346.28;5296668;27;20442;-80
2020/12/10 11:44:02;;;;;;;5.50;4.30;;;;;;;7.64;69.62;99343.28;5279546;27;20060;-80
2020/12/10 11:46:29;;;;;;;4.80;3.90;;;;;;;7.78;68.70;99343.13;5277000;27;20058;-80
2020/12/10 11:49:12;;;;;;;7.47;4.65;;;;;;;7.65;69.37;99345.03;5296625;27;20088;-81
2020/12/10 11:51:39;;;;;;;7.22;5.68;;;;;;;7.70;69.20;99351.03;5296557;27;20615;-80
2020/12/10 11:54:06;;;;;;;6.60;5.32;;;;;;;7.82;68.72;99350.03;5276981;27;20049;-79
2020/12/10 11:56:44;;;;;;;5.60;4.20;;;;;;;7.95;68.55;99346.41;5277151;27;20476;-80
2020/12/10 11:59:32;;;;;;;6.60;4.10;;;;;;;8.00;68.17;99353.34;5275987;27;20073;-80
2020/12/10 12:01:59;;;;;;;5.82;2.80;;;;;;;7.87;68.71;99353.47;5294835;27;20072;-79
2020/12/10 12:04:27;;;;;;;4.62;3.85;;;;;;;7.64;69.37;99364.19;5276504;27;20328;-81
2020/12/10 12:06:54;;;;;;;3.87;2.75;;;;;;;7.86;68.43;99364.84;5259119;27;20461;-80
2020/12/10 12:09:20;;;;;;;5.80;3.75;;;;;;;7.67;68.91;99368.53;5276945;27;20066;-80
2020/12/10 12:11:48;;;;;;;6.82;4.70;;;;;;;7.84;68.34;99365.72;5278009;27;20065;-81